createdAt,value
2022-09-27T00:00:50.069Z,17.37
2022-09-27T00:03:18.944Z,17.33
2022-09-27T00:05:47.093Z,17.30
2022-09-27T00:12:41.821Z,18.20
2022-09-27T00:15:32.100Z,18.73
2022-09-27T00:18:03.919Z,17.90
2022-09-27T00:21:15.717Z,18.30
2022-09-27T00:23:52.618Z,19.10
2022-09-27T00:26:34.281Z,18.87
2022-09-27T00:29:11.982Z,18.83
2022-09-27T00:31:42.979Z,19.03
2022-09-27T00:34:21.101Z,20.03
2022-09-27T00:36:56.652Z,19.67
2022-09-27T00:39:29.343Z,19.70
2022-09-27T00:42:02.396Z,20.37
2022-09-27T00:45:14.288Z,19.97
2022-09-27T00:47:55.594Z,20.03
2022-09-27T00:50:29.943Z,19.07
2022-09-27T00:53:08.097Z,20.43
2022-09-27T00:55:41.236Z,21.43
2022-09-27T00:58:10.421Z,21.50
2022-09-27T01:00:46.167Z,21.97
2022-09-27T01:03:30.369Z,21.97
2022-09-27T01:06:04.652Z,21.70
2022-09-27T01:09:23.831Z,22.37
2022-09-27T01:20:45.620Z,22.60
2022-09-27T01:23:43.201Z,22.90
2022-09-27T01:26:21.733Z,22.40
2022-09-27T01:36:33.581Z,23.53
2022-09-27T01:39:18.165Z,22.80
2022-09-27T01:43:05.001Z,22.97
2022-09-27T01:45:46.824Z,23.37
2022-09-27T01:48:38.836Z,22.63
2022-09-27T01:55:11.974Z,23.20
2022-09-27T01:57:47.955Z,23.53
2022-09-27T02:00:23.746Z,23.53
2022-09-27T02:02:57.009Z,23.43
2022-09-27T02:05:43.143Z,23.43
2022-09-27T02:08:31.837Z,24.20
2022-09-27T02:11:12.707Z,23.93
2022-09-27T02:14:02.242Z,23.37
2022-09-27T02:16:51.607Z,23.97
2022-09-27T02:19:33.664Z,24.07
2022-09-27T02:22:17.167Z,23.70
2022-09-27T02:24:50.857Z,24.83
2022-09-27T02:27:27.184Z,24.20
2022-09-27T02:30:02.107Z,25.07
2022-09-27T02:32:32.563Z,25.13
2022-09-27T02:35:05.015Z,25.00
2022-09-27T02:37:36.482Z,24.97
2022-09-27T02:40:06.010Z,23.63
2022-09-27T02:42:38.549Z,24.00
2022-09-27T02:45:08.064Z,25.93
2022-09-27T02:47:57.009Z,24.87
2022-09-27T02:50:56.947Z,25.70
2022-09-27T02:54:19.204Z,24.83
2022-09-27T02:57:23.369Z,24.53
2022-09-27T03:00:15.628Z,26.00
2022-09-27T03:03:23.536Z,25.37
2022-09-27T03:06:01.438Z,26.83
2022-09-27T03:08:30.292Z,26.60
2022-09-27T03:11:00.188Z,27.53
2022-09-27T03:13:28.916Z,26.90
2022-09-27T03:16:01.601Z,28.90
2022-09-27T03:18:51.179Z,26.90
2022-09-27T03:21:39.248Z,27.17
2022-09-27T03:24:08.132Z,26.37
2022-09-27T03:26:39.654Z,27.23
2022-09-27T03:29:11.025Z,27.57
2022-09-27T03:31:42.612Z,27.23
2022-09-27T03:34:33.178Z,28.57
2022-09-27T03:37:19.965Z,29.07
2022-09-27T03:39:56.362Z,29.87
2022-09-27T03:42:26.244Z,29.43
2022-09-27T03:44:56.792Z,33.20
2022-09-27T03:47:27.110Z,29.67
2022-09-27T03:49:56.262Z,31.23
2022-09-27T03:52:26.274Z,30.87
2022-09-27T03:54:59.732Z,29.03
2022-09-27T03:57:33.819Z,30.10
2022-09-27T04:00:02.230Z,31.00
2022-09-27T04:02:42.546Z,32.63
2022-09-27T04:05:26.064Z,33.17
2022-09-27T04:08:13.727Z,39.13
2022-09-27T04:10:44.531Z,34.70
2022-09-27T04:13:13.957Z,32.03
2022-09-27T04:15:52.686Z,32.73
2022-09-27T04:18:44.368Z,34.37
2022-09-27T04:21:34.438Z,32.90
2022-09-27T04:24:03.159Z,33.73
2022-09-27T04:26:32.199Z,32.37
2022-09-27T04:29:05.629Z,36.13
2022-09-27T04:31:39.179Z,35.63
2022-09-27T04:34:52.466Z,34.50
2022-09-27T04:37:27.198Z,32.67
2022-09-27T04:40:02.461Z,34.13
2022-09-27T04:42:36.266Z,35.63
2022-09-27T04:45:06.372Z,34.90
2022-09-27T04:47:35.476Z,38.17
2022-09-27T04:50:04.461Z,35.10
2022-09-27T04:52:35.050Z,34.33
2022-09-27T04:55:05.599Z,35.53
2022-09-27T04:57:38.560Z,35.80
2022-09-27T05:00:14.158Z,36.70
2022-09-27T05:02:48.421Z,35.77
2022-09-27T05:05:37.558Z,35.17
2022-09-27T05:08:09.184Z,33.10
2022-09-27T05:10:59.306Z,33.00
2022-09-27T05:13:27.971Z,32.40
2022-09-27T05:16:23.279Z,31.83
2022-09-27T05:19:10.253Z,32.97
2022-09-27T05:22:05.186Z,32.47
2022-09-27T05:24:34.136Z,36.23
2022-09-27T05:27:03.246Z,35.43
2022-09-27T05:29:32.364Z,34.23
2022-09-27T05:32:15.140Z,38.33
2022-09-27T05:34:44.689Z,36.47
2022-09-27T05:37:15.383Z,34.60
2022-09-27T05:39:43.719Z,35.93
2022-09-27T05:42:12.272Z,37.03
2022-09-27T05:44:47.093Z,36.43
2022-09-27T05:47:40.617Z,36.93
2022-09-27T05:50:12.730Z,37.83
2022-09-27T05:52:41.038Z,39.70
2022-09-27T05:55:13.906Z,42.10
2022-09-27T05:57:43.399Z,43.07
2022-09-27T06:00:12.194Z,45.80
2022-09-27T06:02:41.622Z,42.57
2022-09-27T06:05:31.216Z,49.30
2022-09-27T06:08:35.407Z,43.57
2022-09-27T06:11:08.335Z,47.93
2022-09-27T06:13:38.233Z,47.93
2022-09-27T06:16:08.915Z,45.20
2022-09-27T06:18:40.279Z,51.03
2022-09-27T06:21:14.587Z,49.00
2022-09-27T06:23:54.271Z,47.20
2022-09-27T06:26:29.283Z,47.13
2022-09-27T06:29:13.560Z,45.30
2022-09-27T06:31:49.167Z,45.93
2022-09-27T06:34:28.120Z,47.20
2022-09-27T06:36:57.833Z,54.47
2022-09-27T06:39:29.868Z,50.87
2022-09-27T06:42:24.053Z,48.27
2022-09-27T06:45:07.142Z,47.57
2022-09-27T06:48:10.388Z,51.13
2022-09-27T06:50:49.208Z,47.07
2022-09-27T06:53:19.245Z,48.10
2022-09-27T06:55:47.812Z,44.83
2022-09-27T06:58:34.126Z,39.47
2022-09-27T07:01:25.540Z,32.23
2022-09-27T07:04:37.310Z,33.53
2022-09-27T07:07:24.855Z,28.17
2022-09-27T07:09:56.531Z,26.50
2022-09-27T07:13:28.969Z,31.00
2022-09-27T07:15:57.265Z,28.07
2022-09-27T07:18:27.176Z,28.90
2022-09-27T07:21:00.143Z,27.60
2022-09-27T07:23:30.273Z,26.47
2022-09-27T07:26:05.288Z,28.63
2022-09-27T07:28:34.258Z,26.47
2022-09-27T07:31:04.612Z,27.63
2022-09-27T07:33:34.257Z,27.03
2022-09-27T07:36:08.602Z,29.53
2022-09-27T07:38:46.998Z,26.33
2022-09-27T07:41:21.155Z,28.93
2022-09-27T07:43:50.191Z,31.50
2022-09-27T07:46:20.279Z,32.83
2022-09-27T07:49:07.407Z,31.40
2022-09-27T07:51:42.468Z,31.73
2022-09-27T07:54:32.311Z,33.17
2022-09-27T07:57:24.169Z,35.07
2022-09-27T07:59:59.083Z,29.97
2022-09-27T08:02:33.380Z,30.17
2022-09-27T08:05:01.769Z,27.07
2022-09-27T08:07:31.348Z,28.67
2022-09-27T08:10:03.695Z,30.47
2022-09-27T08:12:36.459Z,27.80
2022-09-27T08:15:08.251Z,27.57
2022-09-27T08:17:36.429Z,26.77
2022-09-27T08:20:19.072Z,27.67
2022-09-27T08:22:58.852Z,32.80
2022-09-27T08:25:55.321Z,31.60
2022-09-27T08:28:54.541Z,30.40
2022-09-27T08:32:02.772Z,26.80
2022-09-27T08:34:34.083Z,28.57
2022-09-27T08:37:02.171Z,32.17
2022-09-27T08:39:31.198Z,31.23
2022-09-27T08:42:17.275Z,29.03
2022-09-27T08:44:54.286Z,30.70
2022-09-27T08:47:28.585Z,32.17
2022-09-27T08:50:02.805Z,27.80
2022-09-27T08:52:41.347Z,27.57
2022-09-27T08:55:24.208Z,26.60
2022-09-27T08:58:00.198Z,25.80
2022-09-27T09:00:31.993Z,24.23
2022-09-27T09:03:55.000Z,24.63
2022-09-27T09:06:32.507Z,25.90
2022-09-27T09:09:12.372Z,26.13
2022-09-27T09:12:17.240Z,25.37
2022-09-27T09:15:20.492Z,24.03
2022-09-27T09:18:04.990Z,22.53
2022-09-27T09:21:34.878Z,22.63
2022-09-27T09:24:23.487Z,23.57
2022-09-27T09:26:59.319Z,25.80
2022-09-27T09:29:46.638Z,26.30
2022-09-27T09:32:32.373Z,22.47
2022-09-27T09:35:04.465Z,22.97
2022-09-27T09:37:39.771Z,20.80
2022-09-27T09:40:20.850Z,34.50
2022-09-27T09:42:56.348Z,25.80
2022-09-27T09:45:29.310Z,25.13
2022-09-27T09:48:06.912Z,25.00
2022-09-27T09:50:43.670Z,26.50
2022-09-27T09:53:22.597Z,26.37
2022-09-27T09:55:55.762Z,22.50
2022-09-27T09:59:24.094Z,21.30
2022-09-27T10:02:16.160Z,21.93
2022-09-27T10:04:46.439Z,20.67
2022-09-27T10:07:27.393Z,17.40
2022-09-27T10:10:01.165Z,18.27
2022-09-27T10:12:49.455Z,18.40
2022-09-27T10:15:24.369Z,17.23
2022-09-27T10:17:55.452Z,17.33
2022-09-27T10:20:32.398Z,16.53
2022-09-27T10:23:06.236Z,18.47
2022-09-27T10:25:56.361Z,17.43
2022-09-27T10:28:46.093Z,16.53
2022-09-27T10:31:18.445Z,18.13
2022-09-27T10:34:06.165Z,16.23
2022-09-27T10:36:47.814Z,20.23
2022-09-27T10:39:25.332Z,16.30
2022-09-27T10:41:57.470Z,14.90
2022-09-27T10:44:45.800Z,15.07
2022-09-27T10:47:27.183Z,14.50
2022-09-27T10:50:49.042Z,13.67
2022-09-27T10:53:25.343Z,13.83
2022-09-27T10:56:02.299Z,12.87
2022-09-27T10:58:34.318Z,12.83
2022-09-27T11:01:12.781Z,12.73
2022-09-27T11:04:05.475Z,13.13
2022-09-27T11:06:39.308Z,18.57
2022-09-27T11:09:30.286Z,16.10
2022-09-27T11:12:11.249Z,16.50
2022-09-27T11:15:08.615Z,15.93
2022-09-27T11:17:51.951Z,17.10
2022-09-27T11:20:28.550Z,17.90
2022-09-27T11:23:27.746Z,16.73
2022-09-27T11:26:18.921Z,18.63
2022-09-27T11:28:57.318Z,17.27
2022-09-27T11:31:52.410Z,17.67
2022-09-27T11:35:10.401Z,16.73
2022-09-27T11:37:45.974Z,21.00
2022-09-27T11:40:24.514Z,20.30
2022-09-27T11:43:23.417Z,19.20
2022-09-27T11:49:15.627Z,15.40
2022-09-27T11:52:07.368Z,16.67
2022-09-27T11:54:51.941Z,16.33
2022-09-27T11:57:55.044Z,16.60
2022-09-27T12:00:46.959Z,22.33
2022-09-27T12:03:38.284Z,16.83
2022-09-27T12:06:18.340Z,16.37
2022-09-27T12:09:00.538Z,17.90
2022-09-27T12:11:34.394Z,17.53
2022-09-27T12:14:05.375Z,18.47
2022-09-27T12:16:39.853Z,18.83
2022-09-27T12:19:26.664Z,20.73
2022-09-27T12:22:56.912Z,17.70
2022-09-27T12:25:26.608Z,16.93
2022-09-27T12:28:09.297Z,16.10
2022-09-27T12:30:42.942Z,16.27
2022-09-27T12:33:24.741Z,15.67
2022-09-27T12:36:01.430Z,14.67
2022-09-27T12:38:40.910Z,14.10
2022-09-27T12:41:12.387Z,13.33
2022-09-27T12:43:57.350Z,13.40
2022-09-27T12:46:52.688Z,14.60
2022-09-27T12:49:33.706Z,15.43
2022-09-27T12:52:12.188Z,18.13
2022-09-27T12:55:22.952Z,16.40
2022-09-27T12:58:19.520Z,13.23
2022-09-27T13:00:57.002Z,13.47
2022-09-27T13:03:45.524Z,13.40
2022-09-27T13:06:41.416Z,12.23
2022-09-27T13:09:36.580Z,12.40
2022-09-27T13:12:11.007Z,12.80
2022-09-27T13:14:46.564Z,12.40
2022-09-27T13:17:37.676Z,14.53
2022-09-27T13:20:40.557Z,15.57
2022-09-27T13:24:01.597Z,20.83
2022-09-27T13:27:07.688Z,16.17
2022-09-27T13:29:43.571Z,14.23
2022-09-27T13:32:22.600Z,11.50
2022-09-27T13:35:21.072Z,10.17
2022-09-27T13:37:59.775Z,11.67
2022-09-27T13:40:38.514Z,11.27
2022-09-27T13:43:47.708Z,14.27
2022-09-27T13:46:38.528Z,10.40
2022-09-27T13:49:24.837Z,10.13
2022-09-27T13:52:21.896Z,9.67
2022-09-27T13:55:04.017Z,14.27
2022-09-27T13:57:50.205Z,12.03
2022-09-27T14:00:25.499Z,10.23
2022-09-27T14:03:04.139Z,10.60
2022-09-27T14:05:39.485Z,13.47
2022-09-27T14:08:16.360Z,11.17
2022-09-27T14:10:45.178Z,9.87
2022-09-27T14:13:20.129Z,9.88
2022-09-27T14:16:03.042Z,16.27
2022-09-27T14:18:32.448Z,10.13
2022-09-27T14:21:20.584Z,9.70
2022-09-27T14:24:30.233Z,9.30
2022-09-27T14:27:13.655Z,11.30
2022-09-27T14:29:46.791Z,15.17
2022-09-27T14:32:23.495Z,7.88
2022-09-27T14:35:30.153Z,8.05
2022-09-27T14:38:02.420Z,7.82
2022-09-27T14:40:43.651Z,9.93
2022-09-27T14:43:18.181Z,14.07
2022-09-27T14:45:48.397Z,8.38
2022-09-27T14:48:27.398Z,8.55
2022-09-27T14:51:04.976Z,9.68
2022-09-27T14:53:36.370Z,8.75
2022-09-27T14:56:08.170Z,8.83
2022-09-27T14:58:47.207Z,8.68
2022-09-27T15:01:17.552Z,25.55
2022-09-27T15:03:53.609Z,12.43
2022-09-27T15:06:23.509Z,12.97
2022-09-27T15:08:52.311Z,9.43
2022-09-27T15:11:21.493Z,8.10
2022-09-27T15:13:55.465Z,11.03
2022-09-27T15:16:25.378Z,7.80
2022-09-27T15:19:03.668Z,11.57
2022-09-27T15:21:34.143Z,11.33
2022-09-27T15:24:03.057Z,9.57
2022-09-27T15:26:39.554Z,9.20
2022-09-27T15:29:07.942Z,10.47
2022-09-27T15:31:37.549Z,8.40
2022-09-27T15:34:25.962Z,9.57
2022-09-27T15:37:00.368Z,15.33
2022-09-27T15:39:34.156Z,8.50
2022-09-27T15:42:06.595Z,8.33
2022-09-27T15:44:41.618Z,7.90
2022-09-27T15:47:40.945Z,8.43
2022-09-27T15:50:37.544Z,8.47
2022-09-27T15:53:07.030Z,8.10
2022-09-27T15:55:40.381Z,7.77
2022-09-27T15:58:16.596Z,10.00
2022-09-27T16:00:56.541Z,9.00
2022-09-27T16:03:25.854Z,8.03
2022-09-27T16:05:57.407Z,8.77
2022-09-27T16:08:25.830Z,8.30
2022-09-27T16:10:56.016Z,8.13
2022-09-27T16:13:26.005Z,9.03
2022-09-27T16:15:59.480Z,8.90
2022-09-27T16:18:30.924Z,8.30
2022-09-27T16:21:01.543Z,10.20
2022-09-27T16:23:33.965Z,10.23
2022-09-27T16:29:31.258Z,8.53
2022-09-27T16:32:04.693Z,8.70
2022-09-27T16:34:33.444Z,7.87
2022-09-27T16:37:32.077Z,8.53
2022-09-27T16:40:30.858Z,11.53
2022-09-27T16:43:00.019Z,8.40
2022-09-27T16:45:33.391Z,9.57
2022-09-27T16:48:03.128Z,9.90
2022-09-27T16:50:51.482Z,9.30
2022-09-27T16:53:44.980Z,12.03
2022-09-27T16:56:13.671Z,9.83
2022-09-27T16:58:46.204Z,10.87
2022-09-27T17:02:30.196Z,9.63
2022-09-27T17:05:24.012Z,9.70
2022-09-27T17:07:57.572Z,9.90
2022-09-27T17:10:56.606Z,10.73
2022-09-27T17:13:30.343Z,9.83
2022-09-27T17:16:00.024Z,9.80
2022-09-27T17:18:28.755Z,10.30
2022-09-27T17:21:03.038Z,9.90
2022-09-27T17:23:32.723Z,10.10
2022-09-27T17:26:10.586Z,10.13
2022-09-27T17:28:39.666Z,10.77
2022-09-27T17:31:15.496Z,10.20
2022-09-27T17:33:46.751Z,11.33
2022-09-27T17:36:18.755Z,10.20
2022-09-27T17:38:48.746Z,10.30
2022-09-27T17:41:25.753Z,9.80
2022-09-27T17:43:55.748Z,10.30
2022-09-27T17:46:25.778Z,10.77
2022-09-27T17:49:11.991Z,9.90
2022-09-27T17:51:42.798Z,10.90
2022-09-27T17:54:12.899Z,13.07
2022-09-27T17:56:50.426Z,12.53
2022-09-27T17:59:19.548Z,12.03
2022-09-27T18:01:49.772Z,11.83
2022-09-27T18:04:19.833Z,11.20
2022-09-27T18:06:49.894Z,11.70
2022-09-27T18:09:19.832Z,11.03
2022-09-27T18:12:14.920Z,11.87
2022-09-27T18:14:43.386Z,12.13
2022-09-27T18:17:13.575Z,13.70
2022-09-27T18:19:42.109Z,12.87
2022-09-27T18:22:10.838Z,12.53
2022-09-27T18:24:42.730Z,12.53
2022-09-27T18:27:17.307Z,12.20
2022-09-27T18:29:49.189Z,11.67
2022-09-27T18:33:19.593Z,11.83
2022-09-27T18:35:48.214Z,12.40
2022-09-27T18:38:17.198Z,12.73
2022-09-27T18:40:56.599Z,15.10
2022-09-27T18:43:57.136Z,13.60
2022-09-27T18:46:36.211Z,14.53
2022-09-27T18:49:16.005Z,13.90
2022-09-27T18:51:52.086Z,15.17
2022-09-27T18:54:21.591Z,17.27
2022-09-27T18:56:52.404Z,18.10
2022-09-27T18:59:23.769Z,20.33
2022-09-27T19:01:53.659Z,16.93
2022-09-27T19:04:25.031Z,19.97
2022-09-27T19:06:57.561Z,22.33
2022-09-27T19:09:32.389Z,29.03
2022-09-27T19:12:04.675Z,25.20
2022-09-27T19:14:35.459Z,21.77
2022-09-27T19:17:05.038Z,18.53
2022-09-27T19:19:43.834Z,18.73
2022-09-27T19:22:12.238Z,18.20
2022-09-27T19:24:40.616Z,17.80
2022-09-27T19:27:10.188Z,20.50
2022-09-27T19:29:44.605Z,18.47
2022-09-27T19:32:14.668Z,18.63
2022-09-27T19:34:42.834Z,18.43
2022-09-27T19:37:10.948Z,18.17
2022-09-27T19:39:45.335Z,20.60
2022-09-27T19:42:13.492Z,18.27
2022-09-27T19:44:42.555Z,19.27
2022-09-27T19:47:10.799Z,17.57
2022-09-27T19:49:40.162Z,20.67
2022-09-27T19:52:08.185Z,20.80
2022-09-27T19:54:36.406Z,19.73
2022-09-27T19:57:07.209Z,19.57
2022-09-27T19:59:35.273Z,16.73
2022-09-27T20:02:05.050Z,17.10
2022-09-27T20:05:05.107Z,15.87
2022-09-27T20:07:39.911Z,15.30
2022-09-27T20:10:11.265Z,16.43
2022-09-27T20:12:39.336Z,16.03
2022-09-27T20:15:08.183Z,16.43
2022-09-27T20:17:40.459Z,15.87
2022-09-27T20:20:11.659Z,18.23
2022-09-27T20:22:43.328Z,15.63
2022-09-27T20:25:11.385Z,18.17
2022-09-27T20:27:41.967Z,38.37
2022-09-27T20:30:12.793Z,20.83
2022-09-27T20:33:01.775Z,16.87
2022-09-27T20:35:31.633Z,16.50
2022-09-27T20:38:00.710Z,16.33
2022-09-27T20:40:29.883Z,17.20
2022-09-27T20:43:01.671Z,16.30
2022-09-27T20:45:31.210Z,19.57
2022-09-27T20:47:59.195Z,16.23
2022-09-27T20:50:30.079Z,16.13
2022-09-27T20:53:00.097Z,16.50
2022-09-27T20:55:29.572Z,14.67
2022-09-27T20:57:59.989Z,14.90
2022-09-27T21:00:39.313Z,14.43
2022-09-27T21:03:08.602Z,13.80
2022-09-27T21:05:37.589Z,16.77
2022-09-27T21:08:07.756Z,15.40
2022-09-27T21:10:43.756Z,14.67
2022-09-27T21:13:11.960Z,15.07
2022-09-27T21:15:40.306Z,16.13
2022-09-27T21:18:09.342Z,13.13
2022-09-27T21:20:37.766Z,14.10
2022-09-27T21:26:37.968Z,13.73
2022-09-27T21:29:14.553Z,13.10
2022-09-27T21:31:44.903Z,15.03
2022-09-27T21:34:13.302Z,17.37
2022-09-27T21:36:45.249Z,13.83
2022-09-27T21:39:18.554Z,16.50
2022-09-27T21:41:50.716Z,15.33
2022-09-27T21:44:20.648Z,14.67
2022-09-27T21:46:53.745Z,15.63
2022-09-27T21:49:21.870Z,14.57
2022-09-27T21:51:54.128Z,17.87
2022-09-27T21:54:28.582Z,16.40
2022-09-27T21:57:02.742Z,18.07
2022-09-27T21:59:31.898Z,15.47
2022-09-27T22:02:00.763Z,18.67
2022-09-27T22:04:30.478Z,14.63
2022-09-27T22:06:58.950Z,15.17
2022-09-27T22:09:54.010Z,15.47
2022-09-27T22:12:23.367Z,15.67
2022-09-27T22:14:51.757Z,15.00
2022-09-27T22:17:20.290Z,14.30
2022-09-27T22:19:48.721Z,15.50
2022-09-27T22:22:20.834Z,17.00
2022-09-27T22:24:49.624Z,14.83
2022-09-27T22:27:22.880Z,15.90
2022-09-27T22:29:54.258Z,16.03
2022-09-27T22:32:22.747Z,17.40
2022-09-27T22:34:53.291Z,16.67
2022-09-27T22:37:33.065Z,16.27
2022-09-27T22:40:02.730Z,16.37
2022-09-27T22:42:32.862Z,17.00
2022-09-27T22:45:04.260Z,16.13
2022-09-27T22:51:38.705Z,17.70
2022-09-27T22:54:18.662Z,16.67
2022-09-27T22:56:47.849Z,17.50
2022-09-27T22:59:18.626Z,16.73
2022-09-27T23:01:54.365Z,16.03
2022-09-27T23:04:23.842Z,17.23
2022-09-27T23:06:52.195Z,16.90
2022-09-27T23:09:20.316Z,16.97
2022-09-27T23:11:49.826Z,17.03
2022-09-27T23:14:23.317Z,16.67
2022-09-27T23:16:52.467Z,16.13
2022-09-27T23:19:25.527Z,17.37
2022-09-27T23:22:04.725Z,16.43
2022-09-27T23:24:33.680Z,16.90
2022-09-27T23:27:20.571Z,17.13
2022-09-27T23:29:50.686Z,16.60
2022-09-27T23:32:19.799Z,17.57
2022-09-27T23:34:53.402Z,16.67
2022-09-27T23:37:21.793Z,16.90
2022-09-27T23:39:49.779Z,16.70
2022-09-27T23:42:19.612Z,16.27
2022-09-27T23:44:49.058Z,17.70
2022-09-27T23:47:21.248Z,17.50
2022-09-27T23:49:49.441Z,16.63
2022-09-27T23:52:23.876Z,16.57
2022-09-27T23:54:53.789Z,16.20
2022-09-27T23:57:22.445Z,16.77
2022-09-27T23:59:52.179Z,16.87
